Airfield :
LOGIN :

Register | Disclaimer

   EN    FR    IT 

 










Legend :    VFR   Marginal VFR   IFR   Intensive IFR   Very Intensive IFR
Visi :
Ceiling :
>= 8 km
>= 3000ft
5 to 8 km
1000 to 3000 ft
1500m to 5 km
500 to 1000 ft
800 to 1500m
200 to 500 ft
< 800m
< 200 ft
Symbols :   Thunderstorms  Fog  Heavy snow  Heavy precipitations  Wind > 20 kt
SIGMETs :     Misc.  Thunderstorms  Icing  Turbulence  Mountain Waves  Volcanic Ashes







- Airport Elevation : 348 ft
- IATA code : STN
- Download approach charts


EGSS - London Stansted

CURRENT METAR :
  • 252350Z AUTO 17005KT 9999 NCD 07/05 Q1006

EXPIRED METARs :
  • 252320Z AUTO 17006KT 9999 NCD 08/05 Q1006
  • 252250Z AUTO 15007KT 9999 NCD 08/05 Q1006
  • 252220Z AUTO 18008KT 9999 NCD 09/05 Q1006
  • 252150Z AUTO 16007KT 9999 NCD 08/04 Q1005
  • 252120Z AUTO 18007KT 9999 NCD 09/04 Q1004
  • 252050Z AUTO 18007KT 9999 NCD 09/04 Q1004

TAF TAF EGSS
Valid from the 26 at 00:00 until the 27 at 06:00 UTC


252304Z 2600/2706 16006KT 9999 FEW030
PROB30
TEMPO 2603/2608 8000 BKN007
TEMPO 2608/2621 9000 -SHRA
PROB40
TEMPO 2608/2618 SHRA BKN014CB
BECMG 2613/2616 22010KT
TEMPO 2622/2702 8000 RA BKN014
BECMG 2702/2705 22015G25KT
TEMPO 2705/2706 8000 RA SHRA
ATIS : +44 1279 669 325
No reported NOTAMs for that airfield.



MET'MAP, your aeronautical weather chart ! - Copyright ORBIFLY December 2007 - Disclaimer

ORBIFLY MET'MAP TEAM :

Programming & Development : Alexandra Zaïnal
Concept & Development : Baudouin d'Aumeries
Co-Development & Prog : Marc-Olivier Méhu
Technical & hardware support : Manuel Goepfert

Contact : metmap@orbifly.com




SOURCES & CREDITS :

   NOAA